sensor_id;sensor_type;location;lat;lon;timestamp;P1;durP1;ratioP1;P2;durP2;ratioP2
82869;SDS011;72645;47.136;15.420;2023-12-14T00:01:24;11.50;;;5.90;;
82869;SDS011;72645;47.136;15.420;2023-12-14T00:03:55;9.80;;;6.40;;
82869;SDS011;72645;47.136;15.420;2023-12-14T00:06:26;10.10;;;5.50;;
82869;SDS011;72645;47.136;15.420;2023-12-14T00:08:57;7.40;;;4.40;;
82869;SDS011;72645;47.136;15.420;2023-12-14T00:11:28;6.10;;;4.20;;
82869;SDS011;72645;47.136;15.420;2023-12-14T00:14:00;8.40;;;6.10;;
82869;SDS011;72645;47.136;15.420;2023-12-14T00:16:31;10.20;;;7.10;;
82869;SDS011;72645;47.136;15.420;2023-12-14T00:19:02;10.80;;;7.40;;
82869;SDS011;72645;47.136;15.420;2023-12-14T00:21:34;9.60;;;5.90;;
82869;SDS011;72645;47.136;15.420;2023-12-14T00:24:05;9.40;;;6.20;;
82869;SDS011;72645;47.136;15.420;2023-12-14T00:26:36;12.80;;;7.20;;
82869;SDS011;72645;47.136;15.420;2023-12-14T00:29:07;8.30;;;6.50;;
82869;SDS011;72645;47.136;15.420;2023-12-14T00:31:38;11.40;;;7.00;;
82869;SDS011;72645;47.136;15.420;2023-12-14T00:34:09;8.90;;;5.90;;
82869;SDS011;72645;47.136;15.420;2023-12-14T00:36:40;11.10;;;6.40;;
82869;SDS011;72645;47.136;15.420;2023-12-14T00:39:11;8.70;;;5.30;;
82869;SDS011;72645;47.136;15.420;2023-12-14T00:41:43;7.30;;;5.30;;
82869;SDS011;72645;47.136;15.420;2023-12-14T00:44:14;9.40;;;5.10;;
82869;SDS011;72645;47.136;15.420;2023-12-14T00:46:45;9.10;;;5.00;;
82869;SDS011;72645;47.136;15.420;2023-12-14T00:49:16;7.90;;;5.90;;
82869;SDS011;72645;47.136;15.420;2023-12-14T00:51:47;9.30;;;5.40;;
82869;SDS011;72645;47.136;15.420;2023-12-14T00:54:18;8.10;;;5.10;;
82869;SDS011;72645;47.136;15.420;2023-12-14T00:56:49;6.60;;;4.50;;
82869;SDS011;72645;47.136;15.420;2023-12-14T00:59:20;8.30;;;5.30;;
82869;SDS011;72645;47.136;15.420;2023-12-14T01:01:51;8.70;;;5.30;;
82869;SDS011;72645;47.136;15.420;2023-12-14T01:04:22;8.10;;;5.40;;
82869;SDS011;72645;47.136;15.420;2023-12-14T01:06:53;8.10;;;4.70;;
82869;SDS011;72645;47.136;15.420;2023-12-14T01:09:24;7.00;;;4.50;;
82869;SDS011;72645;47.136;15.420;2023-12-14T01:11:55;7.80;;;4.90;;
82869;SDS011;72645;47.136;15.420;2023-12-14T01:14:26;8.10;;;5.40;;
82869;SDS011;72645;47.136;15.420;2023-12-14T01:16:57;7.80;;;5.60;;
82869;SDS011;72645;47.136;15.420;2023-12-14T01:19:28;9.70;;;6.20;;
82869;SDS011;72645;47.136;15.420;2023-12-14T01:21:59;8.20;;;4.90;;
82869;SDS011;72645;47.136;15.420;2023-12-14T01:24:30;8.80;;;5.10;;
82869;SDS011;72645;47.136;15.420;2023-12-14T01:27:01;8.80;;;5.60;;
82869;SDS011;72645;47.136;15.420;2023-12-14T01:29:32;7.80;;;5.10;;
82869;SDS011;72645;47.136;15.420;2023-12-14T01:32:04;6.60;;;4.70;;
82869;SDS011;72645;47.136;15.420;2023-12-14T01:34:35;7.00;;;5.10;;
82869;SDS011;72645;47.136;15.420;2023-12-14T01:37:06;6.30;;;4.60;;
82869;SDS011;72645;47.136;15.420;2023-12-14T01:39:37;7.90;;;4.80;;
82869;SDS011;72645;47.136;15.420;2023-12-14T01:42:08;8.60;;;5.00;;
82869;SDS011;72645;47.136;15.420;2023-12-14T01:44:39;7.90;;;5.10;;
82869;SDS011;72645;47.136;15.420;2023-12-14T01:47:10;8.80;;;6.20;;
82869;SDS011;72645;47.136;15.420;2023-12-14T01:49:41;6.70;;;4.40;;
82869;SDS011;72645;47.136;15.420;2023-12-14T01:52:12;7.10;;;4.70;;
82869;SDS011;72645;47.136;15.420;2023-12-14T01:54:43;8.60;;;5.40;;
82869;SDS011;72645;47.136;15.420;2023-12-14T01:57:14;8.50;;;4.60;;
82869;SDS011;72645;47.136;15.420;2023-12-14T01:59:45;5.80;;;4.60;;
82869;SDS011;72645;47.136;15.420;2023-12-14T02:02:16;7.10;;;4.90;;
82869;SDS011;72645;47.136;15.420;2023-12-14T02:04:47;7.50;;;4.40;;
82869;SDS011;72645;47.136;15.420;2023-12-14T02:07:18;6.30;;;3.90;;
82869;SDS011;72645;47.136;15.420;2023-12-14T02:09:49;6.40;;;4.70;;
82869;SDS011;72645;47.136;15.420;2023-12-14T02:12:20;5.90;;;4.20;;
82869;SDS011;72645;47.136;15.420;2023-12-14T02:14:51;7.40;;;4.30;;
82869;SDS011;72645;47.136;15.420;2023-12-14T02:17:25;6.50;;;5.00;;
82869;SDS011;72645;47.136;15.420;2023-12-14T02:19:56;10.00;;;5.50;;
82869;SDS011;72645;47.136;15.420;2023-12-14T02:25:18;9.80;;;4.60;;
82869;SDS011;72645;47.136;15.420;2023-12-14T02:27:50;6.00;;;4.00;;
82869;SDS011;72645;47.136;15.420;2023-12-14T02:30:21;8.10;;;4.90;;
82869;SDS011;72645;47.136;15.420;2023-12-14T02:32:52;6.50;;;4.00;;
82869;SDS011;72645;47.136;15.420;2023-12-14T02:35:23;6.60;;;4.50;;
82869;SDS011;72645;47.136;15.420;2023-12-14T02:37:54;6.20;;;4.00;;
82869;SDS011;72645;47.136;15.420;2023-12-14T02:40:25;7.90;;;4.70;;
82869;SDS011;72645;47.136;15.420;2023-12-14T02:42:56;7.50;;;4.50;;
82869;SDS011;72645;47.136;15.420;2023-12-14T02:45:27;6.00;;;3.90;;
82869;SDS011;72645;47.136;15.420;2023-12-14T02:47:58;5.40;;;4.20;;
82869;SDS011;72645;47.136;15.420;2023-12-14T02:50:29;7.70;;;4.50;;
82869;SDS011;72645;47.136;15.420;2023-12-14T02:53:00;7.50;;;4.40;;
82869;SDS011;72645;47.136;15.420;2023-12-14T02:55:31;7.20;;;4.20;;
82869;SDS011;72645;47.136;15.420;2023-12-14T02:58:02;6.50;;;4.50;;
82869;SDS011;72645;47.136;15.420;2023-12-14T03:00:33;7.20;;;4.20;;
82869;SDS011;72645;47.136;15.420;2023-12-14T03:03:04;6.90;;;3.70;;
82869;SDS011;72645;47.136;15.420;2023-12-14T03:05:35;7.90;;;3.80;;
82869;SDS011;72645;47.136;15.420;2023-12-14T03:08:06;6.50;;;4.20;;
82869;SDS011;72645;47.136;15.420;2023-12-14T03:10:38;4.70;;;3.50;;
82869;SDS011;72645;47.136;15.420;2023-12-14T03:13:09;7.80;;;4.00;;
82869;SDS011;72645;47.136;15.420;2023-12-14T03:15:40;5.30;;;3.70;;
82869;SDS011;72645;47.136;15.420;2023-12-14T03:18:13;5.30;;;3.50;;
82869;SDS011;72645;47.136;15.420;2023-12-14T03:20:44;6.00;;;3.90;;
82869;SDS011;72645;47.136;15.420;2023-12-14T03:23:15;5.10;;;3.70;;
82869;SDS011;72645;47.136;15.420;2023-12-14T03:25:46;5.60;;;4.00;;
82869;SDS011;72645;47.136;15.420;2023-12-14T03:28:17;4.00;;;2.80;;
82869;SDS011;72645;47.136;15.420;2023-12-14T03:30:48;6.90;;;4.00;;
82869;SDS011;72645;47.136;15.420;2023-12-14T03:33:19;6.90;;;4.40;;
82869;SDS011;72645;47.136;15.420;2023-12-14T03:35:50;6.00;;;3.70;;
82869;SDS011;72645;47.136;15.420;2023-12-14T03:38:21;6.80;;;4.20;;
82869;SDS011;72645;47.136;15.420;2023-12-14T03:40:52;7.90;;;4.50;;
82869;SDS011;72645;47.136;15.420;2023-12-14T03:43:24;6.90;;;4.10;;
82869;SDS011;72645;47.136;15.420;2023-12-14T03:45:55;5.70;;;3.70;;
82869;SDS011;72645;47.136;15.420;2023-12-14T03:48:26;8.00;;;4.30;;
82869;SDS011;72645;47.136;15.420;2023-12-14T03:50:57;6.40;;;4.60;;
82869;SDS011;72645;47.136;15.420;2023-12-14T03:53:31;7.70;;;4.70;;
82869;SDS011;72645;47.136;15.420;2023-12-14T03:56:02;7.10;;;5.00;;
82869;SDS011;72645;47.136;15.420;2023-12-14T03:58:33;7.20;;;5.20;;
82869;SDS011;72645;47.136;15.420;2023-12-14T04:01:04;8.80;;;4.90;;
82869;SDS011;72645;47.136;15.420;2023-12-14T04:03:35;6.30;;;4.10;;
82869;SDS011;72645;47.136;15.420;2023-12-14T04:06:06;8.20;;;5.20;;
82869;SDS011;72645;47.136;15.420;2023-12-14T04:08:37;15.60;;;10.60;;
82869;SDS011;72645;47.136;15.420;2023-12-14T04:11:08;12.10;;;6.50;;
82869;SDS011;72645;47.136;15.420;2023-12-14T04:13:40;7.60;;;5.40;;
82869;SDS011;72645;47.136;15.420;2023-12-14T04:16:11;7.40;;;5.00;;
82869;SDS011;72645;47.136;15.420;2023-12-14T04:18:42;7.60;;;4.40;;
82869;SDS011;72645;47.136;15.420;2023-12-14T04:21:13;7.00;;;4.80;;
82869;SDS011;72645;47.136;15.420;2023-12-14T04:23:44;6.30;;;4.60;;
82869;SDS011;72645;47.136;15.420;2023-12-14T04:26:15;12.10;;;6.30;;
82869;SDS011;72645;47.136;15.420;2023-12-14T04:28:47;9.30;;;6.80;;
82869;SDS011;72645;47.136;15.420;2023-12-14T04:31:18;10.10;;;7.20;;
82869;SDS011;72645;47.136;15.420;2023-12-14T04:33:49;7.30;;;5.60;;
82869;SDS011;72645;47.136;15.420;2023-12-14T04:36:20;8.30;;;5.50;;
82869;SDS011;72645;47.136;15.420;2023-12-14T04:38:51;7.80;;;4.80;;
82869;SDS011;72645;47.136;15.420;2023-12-14T04:41:22;9.20;;;6.20;;
82869;SDS011;72645;47.136;15.420;2023-12-14T04:43:53;7.10;;;5.50;;
82869;SDS011;72645;47.136;15.420;2023-12-14T04:46:24;7.90;;;4.70;;
82869;SDS011;72645;47.136;15.420;2023-12-14T04:48:55;4.80;;;3.50;;
82869;SDS011;72645;47.136;15.420;2023-12-14T04:51:26;6.50;;;4.30;;
82869;SDS011;72645;47.136;15.420;2023-12-14T04:53:57;7.10;;;4.50;;
82869;SDS011;72645;47.136;15.420;2023-12-14T04:56:28;7.60;;;4.40;;
82869;SDS011;72645;47.136;15.420;2023-12-14T04:58:59;6.00;;;3.90;;
82869;SDS011;72645;47.136;15.420;2023-12-14T05:01:30;4.80;;;3.60;;
82869;SDS011;72645;47.136;15.420;2023-12-14T05:04:01;6.10;;;3.60;;
82869;SDS011;72645;47.136;15.420;2023-12-14T05:06:32;5.60;;;3.50;;
82869;SDS011;72645;47.136;15.420;2023-12-14T05:09:03;5.00;;;3.50;;
82869;SDS011;72645;47.136;15.420;2023-12-14T05:11:35;5.60;;;3.40;;
82869;SDS011;72645;47.136;15.420;2023-12-14T05:14:08;6.20;;;3.90;;
82869;SDS011;72645;47.136;15.420;2023-12-14T05:16:39;6.10;;;4.30;;
82869;SDS011;72645;47.136;15.420;2023-12-14T05:19:10;5.50;;;3.70;;
82869;SDS011;72645;47.136;15.420;2023-12-14T05:21:41;7.10;;;4.60;;
82869;SDS011;72645;47.136;15.420;2023-12-14T05:24:12;6.70;;;3.90;;
82869;SDS011;72645;47.136;15.420;2023-12-14T05:26:43;7.80;;;4.10;;
82869;SDS011;72645;47.136;15.420;2023-12-14T05:29:14;6.30;;;3.80;;
82869;SDS011;72645;47.136;15.420;2023-12-14T05:31:45;5.10;;;3.40;;
82869;SDS011;72645;47.136;15.420;2023-12-14T05:34:16;5.70;;;3.60;;
82869;SDS011;72645;47.136;15.420;2023-12-14T05:36:47;5.70;;;3.60;;
82869;SDS011;72645;47.136;15.420;2023-12-14T05:39:18;4.60;;;3.30;;
82869;SDS011;72645;47.136;15.420;2023-12-14T05:41:49;5.20;;;3.20;;
82869;SDS011;72645;47.136;15.420;2023-12-14T05:44:20;4.70;;;3.90;;
82869;SDS011;72645;47.136;15.420;2023-12-14T05:46:52;7.20;;;4.20;;
82869;SDS011;72645;47.136;15.420;2023-12-14T05:49:23;6.50;;;3.40;;
82869;SDS011;72645;47.136;15.420;2023-12-14T05:51:54;7.80;;;4.30;;
82869;SDS011;72645;47.136;15.420;2023-12-14T05:54:27;6.00;;;3.90;;
82869;SDS011;72645;47.136;15.420;2023-12-14T05:56:58;5.60;;;3.60;;
82869;SDS011;72645;47.136;15.420;2023-12-14T05:59:29;5.50;;;4.00;;
82869;SDS011;72645;47.136;15.420;2023-12-14T06:02:00;6.00;;;4.00;;
82869;SDS011;72645;47.136;15.420;2023-12-14T06:04:31;6.90;;;4.90;;
82869;SDS011;72645;47.136;15.420;2023-12-14T06:07:03;10.60;;;5.80;;
82869;SDS011;72645;47.136;15.420;2023-12-14T06:09:34;8.50;;;5.40;;
82869;SDS011;72645;47.136;15.420;2023-12-14T06:12:05;8.20;;;4.80;;
82869;SDS011;72645;47.136;15.420;2023-12-14T06:14:36;11.60;;;7.10;;
82869;SDS011;72645;47.136;15.420;2023-12-14T06:17:07;8.90;;;5.80;;
82869;SDS011;72645;47.136;15.420;2023-12-14T06:19:38;9.10;;;5.80;;
82869;SDS011;72645;47.136;15.420;2023-12-14T06:22:09;7.60;;;4.70;;
82869;SDS011;72645;47.136;15.420;2023-12-14T06:24:40;7.00;;;4.10;;
82869;SDS011;72645;47.136;15.420;2023-12-14T06:27:11;5.60;;;3.40;;
82869;SDS011;72645;47.136;15.420;2023-12-14T06:29:42;5.70;;;3.90;;
82869;SDS011;72645;47.136;15.420;2023-12-14T06:32:13;5.60;;;4.00;;
82869;SDS011;72645;47.136;15.420;2023-12-14T06:34:44;7.20;;;3.50;;
82869;SDS011;72645;47.136;15.420;2023-12-14T06:37:15;5.40;;;3.60;;
82869;SDS011;72645;47.136;15.420;2023-12-14T06:39:46;6.70;;;4.10;;
82869;SDS011;72645;47.136;15.420;2023-12-14T06:42:17;56.80;;;26.00;;
82869;SDS011;72645;47.136;15.420;2023-12-14T06:44:49;13.00;;;6.60;;
82869;SDS011;72645;47.136;15.420;2023-12-14T06:47:19;6.60;;;5.30;;
82869;SDS011;72645;47.136;15.420;2023-12-14T06:49:50;6.80;;;4.10;;
82869;SDS011;72645;47.136;15.420;2023-12-14T06:52:21;6.10;;;4.10;;
82869;SDS011;72645;47.136;15.420;2023-12-14T06:54:52;6.30;;;4.00;;
82869;SDS011;72645;47.136;15.420;2023-12-14T06:57:24;7.10;;;4.10;;
82869;SDS011;72645;47.136;15.420;2023-12-14T06:59:56;8.40;;;3.80;;
82869;SDS011;72645;47.136;15.420;2023-12-14T07:02:27;4.90;;;3.40;;
82869;SDS011;72645;47.136;15.420;2023-12-14T07:04:59;4.30;;;2.80;;
82869;SDS011;72645;47.136;15.420;2023-12-14T07:07:30;4.10;;;2.90;;
82869;SDS011;72645;47.136;15.420;2023-12-14T07:10:01;5.80;;;3.10;;
82869;SDS011;72645;47.136;15.420;2023-12-14T07:12:32;5.60;;;3.30;;
82869;SDS011;72645;47.136;15.420;2023-12-14T07:15:04;4.90;;;3.10;;
82869;SDS011;72645;47.136;15.420;2023-12-14T07:17:36;5.10;;;3.50;;
82869;SDS011;72645;47.136;15.420;2023-12-14T07:20:09;5.50;;;4.20;;
82869;SDS011;72645;47.136;15.420;2023-12-14T07:22:41;4.50;;;3.40;;
82869;SDS011;72645;47.136;15.420;2023-12-14T07:25:12;14.50;;;7.10;;
82869;SDS011;72645;47.136;15.420;2023-12-14T07:27:43;7.70;;;4.20;;
82869;SDS011;72645;47.136;15.420;2023-12-14T07:30:14;10.80;;;6.40;;
82869;SDS011;72645;47.136;15.420;2023-12-14T07:32:45;7.50;;;3.70;;
82869;SDS011;72645;47.136;15.420;2023-12-14T07:35:16;6.40;;;3.70;;
82869;SDS011;72645;47.136;15.420;2023-12-14T07:37:47;5.20;;;3.10;;
82869;SDS011;72645;47.136;15.420;2023-12-14T07:40:18;6.60;;;3.90;;
82869;SDS011;72645;47.136;15.420;2023-12-14T07:42:49;7.50;;;4.50;;
82869;SDS011;72645;47.136;15.420;2023-12-14T07:45:20;6.30;;;5.10;;
82869;SDS011;72645;47.136;15.420;2023-12-14T07:47:51;5.30;;;4.10;;
82869;SDS011;72645;47.136;15.420;2023-12-14T07:50:22;6.10;;;3.50;;
82869;SDS011;72645;47.136;15.420;2023-12-14T07:52:54;7.50;;;5.00;;
82869;SDS011;72645;47.136;15.420;2023-12-14T07:55:25;6.40;;;4.20;;
82869;SDS011;72645;47.136;15.420;2023-12-14T07:57:57;6.00;;;4.90;;
82869;SDS011;72645;47.136;15.420;2023-12-14T08:00:28;7.00;;;4.30;;
82869;SDS011;72645;47.136;15.420;2023-12-14T08:02:58;8.60;;;5.30;;
82869;SDS011;72645;47.136;15.420;2023-12-14T08:05:30;6.70;;;4.50;;
82869;SDS011;72645;47.136;15.420;2023-12-14T08:08:01;5.60;;;3.60;;
82869;SDS011;72645;47.136;15.420;2023-12-14T08:10:32;7.90;;;4.90;;
82869;SDS011;72645;47.136;15.420;2023-12-14T08:13:03;7.90;;;4.80;;
82869;SDS011;72645;47.136;15.420;2023-12-14T08:15:34;6.90;;;4.70;;
82869;SDS011;72645;47.136;15.420;2023-12-14T08:18:05;6.10;;;4.40;;
82869;SDS011;72645;47.136;15.420;2023-12-14T08:20:36;7.00;;;4.50;;
82869;SDS011;72645;47.136;15.420;2023-12-14T08:23:07;11.60;;;7.20;;
82869;SDS011;72645;47.136;15.420;2023-12-14T08:25:38;9.00;;;6.10;;
82869;SDS011;72645;47.136;15.420;2023-12-14T08:28:09;7.40;;;6.00;;
82869;SDS011;72645;47.136;15.420;2023-12-14T08:30:40;8.30;;;5.80;;
82869;SDS011;72645;47.136;15.420;2023-12-14T08:33:11;8.00;;;5.40;;
82869;SDS011;72645;47.136;15.420;2023-12-14T08:35:42;8.20;;;5.00;;
82869;SDS011;72645;47.136;15.420;2023-12-14T08:38:13;5.40;;;3.60;;
82869;SDS011;72645;47.136;15.420;2023-12-14T08:40:45;4.50;;;3.20;;
82869;SDS011;72645;47.136;15.420;2023-12-14T08:43:16;3.00;;;2.10;;
82869;SDS011;72645;47.136;15.420;2023-12-14T08:45:47;2.50;;;1.70;;
82869;SDS011;72645;47.136;15.420;2023-12-14T08:48:18;1.40;;;0.80;;
82869;SDS011;72645;47.136;15.420;2023-12-14T08:50:49;0.60;;;0.40;;
82869;SDS011;72645;47.136;15.420;2023-12-14T08:53:22;0.40;;;0.30;;
82869;SDS011;72645;47.136;15.420;2023-12-14T08:55:54;0.30;;;0.20;;
82869;SDS011;72645;47.136;15.420;2023-12-14T08:58:25;0.40;;;0.40;;
82869;SDS011;72645;47.136;15.420;2023-12-14T09:00:57;0.50;;;0.40;;
82869;SDS011;72645;47.136;15.420;2023-12-14T09:03:28;2.40;;;0.60;;
82869;SDS011;72645;47.136;15.420;2023-12-14T09:05:59;0.60;;;0.40;;
82869;SDS011;72645;47.136;15.420;2023-12-14T09:08:33;0.70;;;0.30;;
82869;SDS011;72645;47.136;15.420;2023-12-14T09:11:04;0.40;;;0.40;;
82869;SDS011;72645;47.136;15.420;2023-12-14T09:13:35;0.70;;;0.50;;
82869;SDS011;72645;47.136;15.420;2023-12-14T09:16:07;0.50;;;0.50;;
82869;SDS011;72645;47.136;15.420;2023-12-14T09:18:39;0.40;;;0.40;;
82869;SDS011;72645;47.136;15.420;2023-12-14T09:21:10;1.00;;;1.00;;
82869;SDS011;72645;47.136;15.420;2023-12-14T09:23:42;0.70;;;0.30;;
82869;SDS011;72645;47.136;15.420;2023-12-14T09:26:14;1.60;;;1.50;;
82869;SDS011;72645;47.136;15.420;2023-12-14T09:28:45;0.70;;;0.70;;
82869;SDS011;72645;47.136;15.420;2023-12-14T09:31:16;0.80;;;0.70;;
82869;SDS011;72645;47.136;15.420;2023-12-14T09:33:47;0.50;;;0.40;;
82869;SDS011;72645;47.136;15.420;2023-12-14T09:36:18;0.60;;;0.60;;
82869;SDS011;72645;47.136;15.420;2023-12-14T09:38:49;0.50;;;0.40;;
82869;SDS011;72645;47.136;15.420;2023-12-14T09:41:22;0.40;;;0.40;;
82869;SDS011;72645;47.136;15.420;2023-12-14T09:43:53;0.80;;;0.70;;
82869;SDS011;72645;47.136;15.420;2023-12-14T09:46:24;0.40;;;0.40;;
82869;SDS011;72645;47.136;15.420;2023-12-14T09:48:56;0.70;;;0.40;;
82869;SDS011;72645;47.136;15.420;2023-12-14T09:51:31;0.50;;;0.50;;
82869;SDS011;72645;47.136;15.420;2023-12-14T09:54:02;0.60;;;0.60;;
82869;SDS011;72645;47.136;15.420;2023-12-14T09:56:33;0.30;;;0.30;;
82869;SDS011;72645;47.136;15.420;2023-12-14T09:59:06;0.50;;;0.50;;
82869;SDS011;72645;47.136;15.420;2023-12-14T10:01:37;0.80;;;0.50;;
82869;SDS011;72645;47.136;15.420;2023-12-14T10:04:11;0.70;;;0.50;;
82869;SDS011;72645;47.136;15.420;2023-12-14T10:06:43;3.50;;;1.80;;
82869;SDS011;72645;47.136;15.420;2023-12-14T10:09:15;1.00;;;0.70;;
82869;SDS011;72645;47.136;15.420;2023-12-14T10:12:01;1.70;;;1.10;;
82869;SDS011;72645;47.136;15.420;2023-12-14T10:14:41;0.50;;;0.50;;
82869;SDS011;72645;47.136;15.420;2023-12-14T10:17:16;1.00;;;0.90;;
82869;SDS011;72645;47.136;15.420;2023-12-14T10:19:50;3.10;;;1.20;;
82869;SDS011;72645;47.136;15.420;2023-12-14T10:22:25;2.60;;;1.20;;
82869;SDS011;72645;47.136;15.420;2023-12-14T10:25:00;5.30;;;2.20;;
82869;SDS011;72645;47.136;15.420;2023-12-14T10:27:32;5.90;;;3.70;;
82869;SDS011;72645;47.136;15.420;2023-12-14T10:30:05;5.40;;;2.70;;
82869;SDS011;72645;47.136;15.420;2023-12-14T10:32:40;5.90;;;2.90;;
82869;SDS011;72645;47.136;15.420;2023-12-14T10:35:12;5.80;;;3.00;;
82869;SDS011;72645;47.136;15.420;2023-12-14T10:37:44;2.40;;;1.10;;
82869;SDS011;72645;47.136;15.420;2023-12-14T10:40:18;5.50;;;3.70;;
82869;SDS011;72645;47.136;15.420;2023-12-14T10:42:52;5.10;;;2.80;;
82869;SDS011;72645;47.136;15.420;2023-12-14T10:45:25;3.50;;;2.20;;
82869;SDS011;72645;47.136;15.420;2023-12-14T10:47:58;6.50;;;2.70;;
82869;SDS011;72645;47.136;15.420;2023-12-14T10:50:32;5.00;;;2.80;;
82869;SDS011;72645;47.136;15.420;2023-12-14T10:53:04;4.60;;;3.30;;
82869;SDS011;72645;47.136;15.420;2023-12-14T10:55:37;9.70;;;3.40;;
82869;SDS011;72645;47.136;15.420;2023-12-14T10:58:11;5.20;;;3.20;;
82869;SDS011;72645;47.136;15.420;2023-12-14T11:00:42;3.70;;;2.20;;
82869;SDS011;72645;47.136;15.420;2023-12-14T11:03:14;1.10;;;0.80;;
82869;SDS011;72645;47.136;15.420;2023-12-14T11:05:45;0.70;;;0.60;;
82869;SDS011;72645;47.136;15.420;2023-12-14T11:08:16;0.70;;;0.50;;
82869;SDS011;72645;47.136;15.420;2023-12-14T11:10:54;0.90;;;0.60;;
82869;SDS011;72645;47.136;15.420;2023-12-14T11:13:38;1.40;;;0.80;;
82869;SDS011;72645;47.136;15.420;2023-12-14T11:16:10;0.60;;;0.50;;
82869;SDS011;72645;47.136;15.420;2023-12-14T11:18:44;1.60;;;0.40;;
82869;SDS011;72645;47.136;15.420;2023-12-14T11:21:18;0.60;;;0.60;;
82869;SDS011;72645;47.136;15.420;2023-12-14T11:23:52;1.10;;;0.70;;
82869;SDS011;72645;47.136;15.420;2023-12-14T11:26:25;0.60;;;0.60;;
82869;SDS011;72645;47.136;15.420;2023-12-14T11:28:56;0.60;;;0.30;;
82869;SDS011;72645;47.136;15.420;2023-12-14T11:31:28;1.50;;;1.00;;
82869;SDS011;72645;47.136;15.420;2023-12-14T11:34:00;0.60;;;0.50;;
82869;SDS011;72645;47.136;15.420;2023-12-14T11:36:35;1.00;;;0.90;;
82869;SDS011;72645;47.136;15.420;2023-12-14T11:39:09;0.50;;;0.50;;
82869;SDS011;72645;47.136;15.420;2023-12-14T11:41:40;0.90;;;0.90;;
82869;SDS011;72645;47.136;15.420;2023-12-14T11:44:11;0.70;;;0.50;;
82869;SDS011;72645;47.136;15.420;2023-12-14T11:46:54;0.60;;;0.30;;
82869;SDS011;72645;47.136;15.420;2023-12-14T11:49:25;0.70;;;0.70;;
82869;SDS011;72645;47.136;15.420;2023-12-14T11:51:57;0.90;;;0.70;;
82869;SDS011;72645;47.136;15.420;2023-12-14T11:54:31;0.90;;;0.60;;
82869;SDS011;72645;47.136;15.420;2023-12-14T11:57:02;4.90;;;0.60;;
82869;SDS011;72645;47.136;15.420;2023-12-14T11:59:36;0.50;;;0.40;;
82869;SDS011;72645;47.136;15.420;2023-12-14T12:02:07;0.80;;;0.60;;
82869;SDS011;72645;47.136;15.420;2023-12-14T12:04:38;2.20;;;1.40;;
82869;SDS011;72645;47.136;15.420;2023-12-14T12:07:20;0.40;;;0.30;;
82869;SDS011;72645;47.136;15.420;2023-12-14T12:09:51;0.80;;;0.40;;
82869;SDS011;72645;47.136;15.420;2023-12-14T12:12:22;0.30;;;0.30;;
82869;SDS011;72645;47.136;15.420;2023-12-14T12:14:53;0.70;;;0.70;;
82869;SDS011;72645;47.136;15.420;2023-12-14T12:17:24;1.20;;;0.50;;
82869;SDS011;72645;47.136;15.420;2023-12-14T12:19:56;1.00;;;0.30;;
82869;SDS011;72645;47.136;15.420;2023-12-14T12:22:27;0.60;;;0.50;;
82869;SDS011;72645;47.136;15.420;2023-12-14T12:24:58;0.50;;;0.50;;
82869;SDS011;72645;47.136;15.420;2023-12-14T12:27:42;0.40;;;0.30;;
82869;SDS011;72645;47.136;15.420;2023-12-14T12:30:13;0.30;;;0.30;;
82869;SDS011;72645;47.136;15.420;2023-12-14T12:32:44;0.90;;;0.50;;
82869;SDS011;72645;47.136;15.420;2023-12-14T12:35:15;0.40;;;0.20;;
82869;SDS011;72645;47.136;15.420;2023-12-14T12:37:47;1.10;;;0.30;;
82869;SDS011;72645;47.136;15.420;2023-12-14T12:40:22;0.60;;;0.50;;
82869;SDS011;72645;47.136;15.420;2023-12-14T12:42:54;0.40;;;0.20;;
82869;SDS011;72645;47.136;15.420;2023-12-14T12:45:25;1.70;;;0.40;;
82869;SDS011;72645;47.136;15.420;2023-12-14T12:47:57;0.60;;;0.30;;
82869;SDS011;72645;47.136;15.420;2023-12-14T12:50:31;0.70;;;0.70;;
82869;SDS011;72645;47.136;15.420;2023-12-14T12:53:02;0.60;;;0.40;;
82869;SDS011;72645;47.136;15.420;2023-12-14T12:55:33;3.80;;;0.60;;
82869;SDS011;72645;47.136;15.420;2023-12-14T12:58:04;0.40;;;0.40;;
82869;SDS011;72645;47.136;15.420;2023-12-14T13:00:35;1.30;;;0.40;;
82869;SDS011;72645;47.136;15.420;2023-12-14T13:03:06;0.50;;;0.50;;
82869;SDS011;72645;47.136;15.420;2023-12-14T13:05:38;1.40;;;0.30;;
82869;SDS011;72645;47.136;15.420;2023-12-14T13:08:10;1.20;;;0.50;;
82869;SDS011;72645;47.136;15.420;2023-12-14T13:10:41;0.60;;;0.60;;
82869;SDS011;72645;47.136;15.420;2023-12-14T13:13:12;0.60;;;0.50;;
82869;SDS011;72645;47.136;15.420;2023-12-14T13:15:43;0.60;;;0.30;;
82869;SDS011;72645;47.136;15.420;2023-12-14T13:18:14;0.60;;;0.40;;
82869;SDS011;72645;47.136;15.420;2023-12-14T13:20:45;2.80;;;1.10;;
82869;SDS011;72645;47.136;15.420;2023-12-14T13:23:16;4.30;;;1.60;;
82869;SDS011;72645;47.136;15.420;2023-12-14T13:25:48;2.70;;;1.60;;
82869;SDS011;72645;47.136;15.420;2023-12-14T13:28:19;6.70;;;1.10;;
82869;SDS011;72645;47.136;15.420;2023-12-14T13:30:51;3.40;;;1.60;;
82869;SDS011;72645;47.136;15.420;2023-12-14T13:33:22;5.90;;;1.10;;
82869;SDS011;72645;47.136;15.420;2023-12-14T13:35:56;4.70;;;0.80;;
82869;SDS011;72645;47.136;15.420;2023-12-14T13:38:26;2.50;;;1.30;;
82869;SDS011;72645;47.136;15.420;2023-12-14T13:40:59;3.90;;;1.30;;
82869;SDS011;72645;47.136;15.420;2023-12-14T13:43:31;2.00;;;0.70;;
82869;SDS011;72645;47.136;15.420;2023-12-14T13:46:02;1.80;;;0.90;;
82869;SDS011;72645;47.136;15.420;2023-12-14T13:48:48;5.10;;;2.40;;
82869;SDS011;72645;47.136;15.420;2023-12-14T13:51:21;2.30;;;1.20;;
82869;SDS011;72645;47.136;15.420;2023-12-14T13:53:52;1.70;;;1.00;;
82869;SDS011;72645;47.136;15.420;2023-12-14T13:56:23;8.70;;;2.20;;
82869;SDS011;72645;47.136;15.420;2023-12-14T13:58:54;5.00;;;1.10;;
82869;SDS011;72645;47.136;15.420;2023-12-14T14:01:25;2.70;;;1.30;;
82869;SDS011;72645;47.136;15.420;2023-12-14T14:03:56;1.10;;;0.80;;
82869;SDS011;72645;47.136;15.420;2023-12-14T14:06:27;2.00;;;0.90;;
82869;SDS011;72645;47.136;15.420;2023-12-14T14:08:59;4.20;;;1.20;;
82869;SDS011;72645;47.136;15.420;2023-12-14T14:11:30;1.30;;;0.70;;
82869;SDS011;72645;47.136;15.420;2023-12-14T14:14:03;1.80;;;0.80;;
82869;SDS011;72645;47.136;15.420;2023-12-14T14:16:34;4.20;;;1.30;;
82869;SDS011;72645;47.136;15.420;2023-12-14T14:19:05;1.50;;;0.60;;
82869;SDS011;72645;47.136;15.420;2023-12-14T14:21:36;0.80;;;0.80;;
82869;SDS011;72645;47.136;15.420;2023-12-14T14:24:07;4.30;;;1.80;;
82869;SDS011;72645;47.136;15.420;2023-12-14T14:26:38;3.80;;;1.30;;
82869;SDS011;72645;47.136;15.420;2023-12-14T14:29:09;3.30;;;1.00;;
82869;SDS011;72645;47.136;15.420;2023-12-14T14:31:40;0.90;;;0.40;;
82869;SDS011;72645;47.136;15.420;2023-12-14T14:34:11;1.80;;;1.10;;
82869;SDS011;72645;47.136;15.420;2023-12-14T14:36:43;1.50;;;0.80;;
82869;SDS011;72645;47.136;15.420;2023-12-14T14:39:14;2.70;;;0.50;;
82869;SDS011;72645;47.136;15.420;2023-12-14T14:41:46;2.60;;;0.90;;
82869;SDS011;72645;47.136;15.420;2023-12-14T14:44:17;1.40;;;0.60;;
82869;SDS011;72645;47.136;15.420;2023-12-14T14:46:49;0.80;;;0.70;;
82869;SDS011;72645;47.136;15.420;2023-12-14T14:49:20;3.10;;;1.10;;
82869;SDS011;72645;47.136;15.420;2023-12-14T14:51:51;2.10;;;1.10;;
82869;SDS011;72645;47.136;15.420;2023-12-14T14:54:22;2.10;;;0.90;;
82869;SDS011;72645;47.136;15.420;2023-12-14T14:56:53;1.90;;;0.50;;
82869;SDS011;72645;47.136;15.420;2023-12-14T14:59:24;0.60;;;0.60;;
82869;SDS011;72645;47.136;15.420;2023-12-14T15:01:58;2.80;;;0.70;;